sensor_id;sensor_type;location;lat;lon;timestamp;pressure;altitude;pressure_sealevel;temperature;humidity
64019;BME280;66942;52.138;5.216;2024-01-06T00:00:18;100390.0;;;20.87;31.77
64019;BME280;66942;52.138;5.216;2024-01-06T00:03:30;100397.0;;;20.92;31.91
64019;BME280;66942;52.138;5.216;2024-01-06T00:05:06;100396.0;;;20.95;31.86
64019;BME280;66942;52.138;5.216;2024-01-06T00:06:43;100399.0;;;20.72;32.39
64019;BME280;66942;52.138;5.216;2024-01-06T00:09:56;100408.0;;;20.09;32.51
64019;BME280;66942;52.138;5.216;2024-01-06T00:11:32;100407.0;;;20.77;31.89
64019;BME280;66942;52.138;5.216;2024-01-06T00:13:08;100408.0;;;20.71;31.89
64019;BME280;66942;52.138;5.216;2024-01-06T00:14:46;100411.0;;;20.81;31.87
64019;BME280;66942;52.138;5.216;2024-01-06T00:17:58;100410.0;;;21.11;31.66
64019;BME280;66942;52.138;5.216;2024-01-06T00:19:37;100412.0;;;21.03;31.62
64019;BME280;66942;52.138;5.216;2024-01-06T00:21:13;100415.0;;;21.25;31.17
64019;BME280;66942;52.138;5.216;2024-01-06T00:24:25;100415.0;;;20.91;31.23
64019;BME280;66942;52.138;5.216;2024-01-06T00:26:01;100423.0;;;20.61;31.69
64019;BME280;66942;52.138;5.216;2024-01-06T00:27:37;100426.0;;;20.34;31.81
64019;BME280;66942;52.138;5.216;2024-01-06T00:30:49;100427.0;;;20.59;31.88
64019;BME280;66942;52.138;5.216;2024-01-06T00:32:25;100427.0;;;20.58;31.83
64019;BME280;66942;52.138;5.216;2024-01-06T00:34:02;100432.0;;;20.25;31.89
64019;BME280;66942;52.138;5.216;2024-01-06T00:37:14;100436.0;;;19.73;32.36
64019;BME280;66942;52.138;5.216;2024-01-06T00:38:50;100431.0;;;20.85;30.81
64019;BME280;66942;52.138;5.216;2024-01-06T00:40:26;100430.0;;;20.78;31.09
64019;BME280;66942;52.138;5.216;2024-01-06T00:42:05;100433.0;;;20.43;31.43
64019;BME280;66942;52.138;5.216;2024-01-06T00:45:18;100437.0;;;20.52;31.2
64019;BME280;66942;52.138;5.216;2024-01-06T00:46:54;100440.0;;;20.43;31.46
64019;BME280;66942;52.138;5.216;2024-01-06T00:48:30;100441.0;;;20.77;30.95
64019;BME280;66942;52.138;5.216;2024-01-06T00:51:44;100443.0;;;20.57;31.37
64019;BME280;66942;52.138;5.216;2024-01-06T00:53:21;100445.0;;;20.56;31.17
64019;BME280;66942;52.138;5.216;2024-01-06T00:54:57;100451.0;;;20.47;31.53
64019;BME280;66942;52.138;5.216;2024-01-06T00:58:09;100451.0;;;20.32;31.85
64019;BME280;66942;52.138;5.216;2024-01-06T00:59:45;100452.0;;;19.93;31.44
64019;BME280;66942;52.138;5.216;2024-01-06T01:01:21;100448.0;;;20.66;30.77
64019;BME280;66942;52.138;5.216;2024-01-06T01:02:57;100451.0;;;20.68;30.88
64019;BME280;66942;52.138;5.216;2024-01-06T01:06:09;100452.0;;;20.48;31.41
64019;BME280;66942;52.138;5.216;2024-01-06T01:07:46;100457.0;;;20.32;31.05
64019;BME280;66942;52.138;5.216;2024-01-06T01:09:22;100462.0;;;20.11;31.49
64019;BME280;66942;52.138;5.216;2024-01-06T01:12:34;100469.0;;;20.2;31.52
64019;BME280;66942;52.138;5.216;2024-01-06T01:14:10;100476.0;;;19.88;31.88
64019;BME280;66942;52.138;5.216;2024-01-06T01:15:46;100477.0;;;20.14;31.31
64019;BME280;66942;52.138;5.216;2024-01-06T01:18:58;100481.0;;;20.34;31.58
64019;BME280;66942;52.138;5.216;2024-01-06T01:20:34;100486.0;;;20.48;31.44
64019;BME280;66942;52.138;5.216;2024-01-06T01:22:10;100485.0;;;20.21;31.58
64019;BME280;66942;52.138;5.216;2024-01-06T01:23:46;100489.0;;;20.39;31.19
64019;BME280;66942;52.138;5.216;2024-01-06T01:26:59;100486.0;;;20.45;31.23
64019;BME280;66942;52.138;5.216;2024-01-06T01:28:35;100488.0;;;20.11;31.86
64019;BME280;66942;52.138;5.216;2024-01-06T01:30:11;100493.0;;;20.2;31.6
64019;BME280;66942;52.138;5.216;2024-01-06T01:33:24;100499.0;;;20.38;31.48
64019;BME280;66942;52.138;5.216;2024-01-06T01:35:00;100503.0;;;19.37;32.29
64019;BME280;66942;52.138;5.216;2024-01-06T01:36:36;100505.0;;;19.75;31.94
64019;BME280;66942;52.138;5.216;2024-01-06T01:39:48;100512.0;;;20.16;31.71
64019;BME280;66942;52.138;5.216;2024-01-06T01:41:25;100517.0;;;20.2;31.6
64019;BME280;66942;52.138;5.216;2024-01-06T01:43:01;100523.0;;;19.84;31.71
64019;BME280;66942;52.138;5.216;2024-01-06T01:46:13;100526.0;;;20.03;31.53
64019;BME280;66942;52.138;5.216;2024-01-06T01:47:49;100533.0;;;19.71;31.78
64019;BME280;66942;52.138;5.216;2024-01-06T01:49:26;100534.0;;;19.38;32.06
64019;BME280;66942;52.138;5.216;2024-01-06T01:51:03;100538.0;;;19.77;31.8
64019;BME280;66942;52.138;5.216;2024-01-06T01:54:17;100542.0;;;19.89;31.44
64019;BME280;66942;52.138;5.216;2024-01-06T01:55:54;100545.0;;;20.18;31.31
64019;BME280;66942;52.138;5.216;2024-01-06T01:57:30;100548.0;;;20.34;31.1
64019;BME280;66942;52.138;5.216;2024-01-06T02:00:48;100549.0;;;20.11;31.64
64019;BME280;66942;52.138;5.216;2024-01-06T02:02:24;100551.0;;;20.5;30.92
64019;BME280;66942;52.138;5.216;2024-01-06T02:04:01;100555.0;;;20.25;31.05
64019;BME280;66942;52.138;5.216;2024-01-06T02:05:37;100550.0;;;20.07;31.42
64019;BME280;66942;52.138;5.216;2024-01-06T02:08:49;100555.0;;;20.11;31.6
64019;BME280;66942;52.138;5.216;2024-01-06T02:10:25;100555.0;;;19.79;31.36
64019;BME280;66942;52.138;5.216;2024-01-06T02:12:05;100557.0;;;20.2;30.65
64019;BME280;66942;52.138;5.216;2024-01-06T02:15:18;100558.0;;;20.34;30.69
64019;BME280;66942;52.138;5.216;2024-01-06T02:16:54;100559.0;;;20.18;31.17
64019;BME280;66942;52.138;5.216;2024-01-06T02:18:31;100556.0;;;20.09;31.05
64019;BME280;66942;52.138;5.216;2024-01-06T02:21:48;100559.0;;;20.43;30.4
64019;BME280;66942;52.138;5.216;2024-01-06T02:23:24;100563.0;;;20.48;30.54
64019;BME280;66942;52.138;5.216;2024-01-06T02:25:00;100563.0;;;20.53;30.4
64019;BME280;66942;52.138;5.216;2024-01-06T02:26:36;100573.0;;;20.56;30.45
64019;BME280;66942;52.138;5.216;2024-01-06T02:29:48;100571.0;;;20.29;30.72
64019;BME280;66942;52.138;5.216;2024-01-06T02:31:24;100570.0;;;20.02;31.13
64019;BME280;66942;52.138;5.216;2024-01-06T02:33:00;100575.0;;;20.04;30.91
64019;BME280;66942;52.138;5.216;2024-01-06T02:36:13;100570.0;;;20.11;31.09
64019;BME280;66942;52.138;5.216;2024-01-06T02:37:49;100572.0;;;20.0;31.23
64019;BME280;66942;52.138;5.216;2024-01-06T02:39:25;100577.0;;;19.86;31.3
64019;BME280;66942;52.138;5.216;2024-01-06T02:42:37;100578.0;;;19.87;31.38
64019;BME280;66942;52.138;5.216;2024-01-06T02:44:13;100583.0;;;20.05;31.2
64019;BME280;66942;52.138;5.216;2024-01-06T02:45:49;100583.0;;;19.34;31.9
64019;BME280;66942;52.138;5.216;2024-01-06T02:49:01;100587.0;;;19.57;31.58
64019;BME280;66942;52.138;5.216;2024-01-06T02:50:37;100590.0;;;19.11;32.1
64019;BME280;66942;52.138;5.216;2024-01-06T02:52:14;100594.0;;;19.7;31.71
64019;BME280;66942;52.138;5.216;2024-01-06T02:53:50;100595.0;;;19.43;31.75
64019;BME280;66942;52.138;5.216;2024-01-06T02:57:02;100601.0;;;19.41;31.68
64019;BME280;66942;52.138;5.216;2024-01-06T02:58:38;100605.0;;;19.75;31.36
64019;BME280;66942;52.138;5.216;2024-01-06T03:00:15;100606.0;;;20.02;30.68
64019;BME280;66942;52.138;5.216;2024-01-06T03:03:27;100610.0;;;20.03;30.89
64019;BME280;66942;52.138;5.216;2024-01-06T03:05:04;100617.0;;;20.09;30.88
64019;BME280;66942;52.138;5.216;2024-01-06T03:06:40;100617.0;;;19.52;31.4
64019;BME280;66942;52.138;5.216;2024-01-06T03:09:55;100616.0;;;19.27;31.52
64019;BME280;66942;52.138;5.216;2024-01-06T03:11:32;100615.0;;;19.75;31.29
64019;BME280;66942;52.138;5.216;2024-01-06T03:13:08;100616.0;;;19.11;31.84
64019;BME280;66942;52.138;5.216;2024-01-06T03:14:44;100617.0;;;20.25;30.63
64019;BME280;66942;52.138;5.216;2024-01-06T03:17:56;100617.0;;;19.5;31.71
64019;BME280;66942;52.138;5.216;2024-01-06T03:19:32;100620.0;;;19.95;30.93
64019;BME280;66942;52.138;5.216;2024-01-06T03:21:16;100620.0;;;19.79;31.03
64019;BME280;66942;52.138;5.216;2024-01-06T03:24:28;100622.0;;;19.93;30.98
64019;BME280;66942;52.138;5.216;2024-01-06T03:26:05;100627.0;;;19.98;31.08
64019;BME280;66942;52.138;5.216;2024-01-06T03:27:42;100630.0;;;19.86;31.2
64019;BME280;66942;52.138;5.216;2024-01-06T03:29:18;100636.0;;;20.22;30.59
64019;BME280;66942;52.138;5.216;2024-01-06T03:32:29;100632.0;;;19.73;30.95
64019;BME280;66942;52.138;5.216;2024-01-06T03:34:05;100635.0;;;20.03;30.65
64019;BME280;66942;52.138;5.216;2024-01-06T03:35:41;100642.0;;;19.97;30.84
64019;BME280;66942;52.138;5.216;2024-01-06T03:38:53;100645.0;;;19.91;31.29
64019;BME280;66942;52.138;5.216;2024-01-06T03:40:29;100655.0;;;19.93;30.88
64019;BME280;66942;52.138;5.216;2024-01-06T03:42:06;100655.0;;;19.29;31.73
64019;BME280;66942;52.138;5.216;2024-01-06T03:45:18;100660.0;;;20.0;30.95
64019;BME280;66942;52.138;5.216;2024-01-06T03:46:54;100662.0;;;20.06;30.78
64019;BME280;66942;52.138;5.216;2024-01-06T03:48:30;100668.0;;;19.87;31.15
64019;BME280;66942;52.138;5.216;2024-01-06T03:51:43;100668.0;;;19.18;31.89
64019;BME280;66942;52.138;5.216;2024-01-06T03:53:22;100670.0;;;19.73;31.59
64019;BME280;66942;52.138;5.216;2024-01-06T03:54:58;100669.0;;;19.11;31.8
64019;BME280;66942;52.138;5.216;2024-01-06T03:56:34;100680.0;;;19.28;31.92
64019;BME280;66942;52.138;5.216;2024-01-06T03:59:46;100680.0;;;19.78;31.36
64019;BME280;66942;52.138;5.216;2024-01-06T04:01:23;100688.0;;;19.72;31.61
64019;BME280;66942;52.138;5.216;2024-01-06T04:02:59;100688.0;;;19.7;31.59
64019;BME280;66942;52.138;5.216;2024-01-06T04:06:11;100690.0;;;18.84;32.14
64019;BME280;66942;52.138;5.216;2024-01-06T04:07:47;100694.0;;;19.13;32.07
64019;BME280;66942;52.138;5.216;2024-01-06T04:09:23;100691.0;;;20.0;30.86
64019;BME280;66942;52.138;5.216;2024-01-06T04:12:35;100694.0;;;19.57;31.35
64019;BME280;66942;52.138;5.216;2024-01-06T04:14:11;100694.0;;;19.8;31.31
64019;BME280;66942;52.138;5.216;2024-01-06T04:15:47;100701.0;;;19.77;30.98
64019;BME280;66942;52.138;5.216;2024-01-06T04:19:00;100697.0;;;19.84;31.06
64019;BME280;66942;52.138;5.216;2024-01-06T04:20:36;100698.0;;;19.63;31.14
64019;BME280;66942;52.138;5.216;2024-01-06T04:22:12;100695.0;;;20.04;30.77
64019;BME280;66942;52.138;5.216;2024-01-06T04:23:48;100700.0;;;19.39;31.33
64019;BME280;66942;52.138;5.216;2024-01-06T04:27:00;100697.0;;;20.06;30.71
64019;BME280;66942;52.138;5.216;2024-01-06T04:28:36;100705.0;;;20.18;30.51
64019;BME280;66942;52.138;5.216;2024-01-06T04:30:13;100706.0;;;19.93;31.08
64019;BME280;66942;52.138;5.216;2024-01-06T04:33:25;100705.0;;;19.98;30.93
64019;BME280;66942;52.138;5.216;2024-01-06T04:35:01;100707.0;;;19.84;30.88
64019;BME280;66942;52.138;5.216;2024-01-06T04:36:37;100712.0;;;19.36;31.58
64019;BME280;66942;52.138;5.216;2024-01-06T04:39:49;100714.0;;;18.91;32.07
64019;BME280;66942;52.138;5.216;2024-01-06T04:41:25;100717.0;;;19.45;31.38
64019;BME280;66942;52.138;5.216;2024-01-06T04:43:01;100718.0;;;19.43;31.45
64019;BME280;66942;52.138;5.216;2024-01-06T04:44:37;100719.0;;;19.59;31.28
64019;BME280;66942;52.138;5.216;2024-01-06T04:47:49;100721.0;;;19.68;31.05
64019;BME280;66942;52.138;5.216;2024-01-06T04:49:25;100718.0;;;19.2;31.89
64019;BME280;66942;52.138;5.216;2024-01-06T04:51:02;100723.0;;;19.77;31.19
64019;BME280;66942;52.138;5.216;2024-01-06T04:54:14;100722.0;;;19.68;31.05
64019;BME280;66942;52.138;5.216;2024-01-06T04:55:50;100728.0;;;19.32;31.86
64019;BME280;66942;52.138;5.216;2024-01-06T04:57:26;100726.0;;;19.61;31.48
64019;BME280;66942;52.138;5.216;2024-01-06T05:00:38;100730.0;;;19.28;31.65
64019;BME280;66942;52.138;5.216;2024-01-06T05:02:14;100730.0;;;19.71;31.33
64019;BME280;66942;52.138;5.216;2024-01-06T05:03:50;100734.0;;;19.5;31.5
64019;BME280;66942;52.138;5.216;2024-01-06T05:07:03;100734.0;;;19.64;31.51
64019;BME280;66942;52.138;5.216;2024-01-06T05:08:40;100738.0;;;19.61;31.28
64019;BME280;66942;52.138;5.216;2024-01-06T05:10:16;100739.0;;;19.25;31.94
64019;BME280;66942;52.138;5.216;2024-01-06T05:11:52;100743.0;;;19.37;31.74
64019;BME280;66942;52.138;5.216;2024-01-06T05:15:04;100747.0;;;19.36;31.6
64019;BME280;66942;52.138;5.216;2024-01-06T05:16:41;100752.0;;;19.88;31.08
64019;BME280;66942;52.138;5.216;2024-01-06T05:18:17;100756.0;;;19.66;31.46
64019;BME280;66942;52.138;5.216;2024-01-06T05:21:30;100760.0;;;19.56;31.61
64019;BME280;66942;52.138;5.216;2024-01-06T05:23:10;100759.0;;;19.59;31.38
64019;BME280;66942;52.138;5.216;2024-01-06T05:24:46;100760.0;;;19.64;31.34
64019;BME280;66942;52.138;5.216;2024-01-06T05:27:58;100762.0;;;19.64;31.42
64019;BME280;66942;52.138;5.216;2024-01-06T05:29:34;100760.0;;;19.68;31.46
64019;BME280;66942;52.138;5.216;2024-01-06T05:31:10;100766.0;;;19.97;30.87
64019;BME280;66942;52.138;5.216;2024-01-06T05:32:46;100767.0;;;19.56;31.5
64019;BME280;66942;52.138;5.216;2024-01-06T05:35:58;100771.0;;;19.53;31.63
64019;BME280;66942;52.138;5.216;2024-01-06T05:37:34;100770.0;;;19.61;31.68
64019;BME280;66942;52.138;5.216;2024-01-06T05:39:10;100771.0;;;19.75;31.46
64019;BME280;66942;52.138;5.216;2024-01-06T05:42:23;100774.0;;;19.57;31.44
64019;BME280;66942;52.138;5.216;2024-01-06T05:43:59;100781.0;;;19.59;31.61
64019;BME280;66942;52.138;5.216;2024-01-06T05:45:35;100784.0;;;19.45;31.62
64019;BME280;66942;52.138;5.216;2024-01-06T05:48:47;100785.0;;;19.23;31.81
64019;BME280;66942;52.138;5.216;2024-01-06T05:50:23;100790.0;;;18.81;32.71
64019;BME280;66942;52.138;5.216;2024-01-06T05:51:59;100797.0;;;19.3;31.91
64019;BME280;66942;52.138;5.216;2024-01-06T05:55:11;100799.0;;;18.93;32.33
64019;BME280;66942;52.138;5.216;2024-01-06T05:56:51;100801.0;;;19.07;32.03
64019;BME280;66942;52.138;5.216;2024-01-06T05:58:27;100801.0;;;19.29;31.53
64019;BME280;66942;52.138;5.216;2024-01-06T06:00:04;100803.0;;;19.43;31.51
64019;BME280;66942;52.138;5.216;2024-01-06T06:03:19;100803.0;;;18.77;32.32
64019;BME280;66942;52.138;5.216;2024-01-06T06:04:55;100805.0;;;19.14;31.84
64019;BME280;66942;52.138;5.216;2024-01-06T06:06:31;100807.0;;;18.84;32.24
64019;BME280;66942;52.138;5.216;2024-01-06T06:09:43;100815.0;;;19.48;31.46
64019;BME280;66942;52.138;5.216;2024-01-06T06:11:19;100811.0;;;19.25;31.73
64019;BME280;66942;52.138;5.216;2024-01-06T06:12:55;100814.0;;;19.32;31.84
64019;BME280;66942;52.138;5.216;2024-01-06T06:16:09;100818.0;;;18.56;32.37
64019;BME280;66942;52.138;5.216;2024-01-06T06:17:46;100824.0;;;18.47;32.78
64019;BME280;66942;52.138;5.216;2024-01-06T06:19:25;100826.0;;;18.39;32.89
64019;BME280;66942;52.138;5.216;2024-01-06T06:21:01;100830.0;;;18.66;32.5
64019;BME280;66942;52.138;5.216;2024-01-06T06:24:13;100827.0;;;18.93;32.28
64019;BME280;66942;52.138;5.216;2024-01-06T06:25:49;100839.0;;;18.63;32.26
64019;BME280;66942;52.138;5.216;2024-01-06T06:27:26;100841.0;;;18.61;32.51
64019;BME280;66942;52.138;5.216;2024-01-06T06:30:38;100846.0;;;18.79;32.14
64019;BME280;66942;52.138;5.216;2024-01-06T06:32:15;100856.0;;;18.38;32.58
64019;BME280;66942;52.138;5.216;2024-01-06T06:33:51;100857.0;;;18.82;31.98
64019;BME280;66942;52.138;5.216;2024-01-06T06:37:03;100858.0;;;19.13;31.86
64019;BME280;66942;52.138;5.216;2024-01-06T06:38:39;100868.0;;;19.02;32.03
64019;BME280;66942;52.138;5.216;2024-01-06T06:40:15;100861.0;;;19.0;31.82
64019;BME280;66942;52.138;5.216;2024-01-06T06:41:51;100870.0;;;18.23;32.79
64019;BME280;66942;52.138;5.216;2024-01-06T06:45:04;100868.0;;;18.89;31.85
64019;BME280;66942;52.138;5.216;2024-01-06T06:46:41;100875.0;;;19.09;31.67
64019;BME280;66942;52.138;5.216;2024-01-06T06:48:17;100880.0;;;19.2;31.48
64019;BME280;66942;52.138;5.216;2024-01-06T06:51:30;100877.0;;;19.14;31.69
64019;BME280;66942;52.138;5.216;2024-01-06T06:53:06;100889.0;;;18.5;32.15
64019;BME280;66942;52.138;5.216;2024-01-06T06:54:43;100884.0;;;18.22;32.86
64019;BME280;66942;52.138;5.216;2024-01-06T06:57:55;100890.0;;;19.02;31.91
64019;BME280;66942;52.138;5.216;2024-01-06T06:59:31;100892.0;;;19.11;31.67
64019;BME280;66942;52.138;5.216;2024-01-06T07:01:07;100894.0;;;19.37;31.31
64019;BME280;66942;52.138;5.216;2024-01-06T07:02:43;100899.0;;;18.95;31.82
64019;BME280;66942;52.138;5.216;2024-01-06T07:05:56;100902.0;;;19.23;31.53
64019;BME280;66942;52.138;5.216;2024-01-06T07:07:33;100913.0;;;18.75;32.31
64019;BME280;66942;52.138;5.216;2024-01-06T07:09:09;100914.0;;;18.7;32.25
64019;BME280;66942;52.138;5.216;2024-01-06T07:12:21;100924.0;;;18.77;32.21
64019;BME280;66942;52.138;5.216;2024-01-06T07:13:57;100924.0;;;18.87;32.17
64019;BME280;66942;52.138;5.216;2024-01-06T07:15:33;100938.0;;;18.29;32.64
64019;BME280;66942;52.138;5.216;2024-01-06T07:18:45;100930.0;;;17.64;33.71
64019;BME280;66942;52.138;5.216;2024-01-06T07:20:21;100933.0;;;18.77;32.11
64019;BME280;66942;52.138;5.216;2024-01-06T07:21:57;100943.0;;;18.48;32.21
64019;BME280;66942;52.138;5.216;2024-01-06T07:25:11;100939.0;;;18.2;32.96
64019;BME280;66942;52.138;5.216;2024-01-06T07:26:47;100946.0;;;18.95;32.17
64019;BME280;66942;52.138;5.216;2024-01-06T07:28:23;100955.0;;;18.53;32.6
64019;BME280;66942;52.138;5.216;2024-01-06T07:29:59;100945.0;;;18.7;32.42
64019;BME280;66942;52.138;5.216;2024-01-06T07:33:12;100953.0;;;19.16;31.65
64019;BME280;66942;52.138;5.216;2024-01-06T07:34:48;100957.0;;;19.09;31.77
64019;BME280;66942;52.138;5.216;2024-01-06T07:36:24;100951.0;;;19.13;31.94
64019;BME280;66942;52.138;5.216;2024-01-06T07:39:36;100958.0;;;19.16;31.73
64019;BME280;66942;52.138;5.216;2024-01-06T07:41:12;100959.0;;;19.03;31.73
64019;BME280;66942;52.138;5.216;2024-01-06T07:42:49;100963.0;;;18.75;32.24
64019;BME280;66942;52.138;5.216;2024-01-06T07:46:01;100965.0;;;18.62;32.42
64019;BME280;66942;52.138;5.216;2024-01-06T07:47:37;100964.0;;;19.25;31.53
64019;BME280;66942;52.138;5.216;2024-01-06T07:49:13;100967.0;;;18.68;32.14
64019;BME280;66942;52.138;5.216;2024-01-06T07:50:49;100969.0;;;19.04;31.66
64019;BME280;66942;52.138;5.216;2024-01-06T07:54:01;100977.0;;;19.2;31.73
64019;BME280;66942;52.138;5.216;2024-01-06T07:55:37;100987.0;;;19.14;31.86
64019;BME280;66942;52.138;5.216;2024-01-06T07:57:14;100991.0;;;19.02;32.05
64019;BME280;66942;52.138;5.216;2024-01-06T08:00:26;100999.0;;;19.31;31.62
64019;BME280;66942;52.138;5.216;2024-01-06T08:02:02;101005.0;;;19.37;31.51
64019;BME280;66942;52.138;5.216;2024-01-06T08:03:38;101009.0;;;19.32;31.34
64019;BME280;66942;52.138;5.216;2024-01-06T08:06:50;101006.0;;;18.5;32.61
64019;BME280;66942;52.138;5.216;2024-01-06T08:08:26;101017.0;;;19.0;31.73
64019;BME280;66942;52.138;5.216;2024-01-06T08:10:03;101011.0;;;18.68;32.37
64019;BME280;66942;52.138;5.216;2024-01-06T08:13:16;101019.0;;;18.87;31.94
64019;BME280;66942;52.138;5.216;2024-01-06T08:14:52;101015.0;;;19.12;31.7
64019;BME280;66942;52.138;5.216;2024-01-06T08:16:28;101016.0;;;19.11;31.68
64019;BME280;66942;52.138;5.216;2024-01-06T08:18:04;101024.0;;;18.81;32.18
64019;BME280;66942;52.138;5.216;2024-01-06T08:21:16;101025.0;;;19.5;31.42
64019;BME280;66942;52.138;5.216;2024-01-06T08:22:55;101027.0;;;19.5;31.49
64019;BME280;66942;52.138;5.216;2024-01-06T08:24:31;101027.0;;;19.06;31.59
64019;BME280;66942;52.138;5.216;2024-01-06T08:27:44;101032.0;;;19.34;31.36
64019;BME280;66942;52.138;5.216;2024-01-06T08:29:20;101035.0;;;19.47;31.23
64019;BME280;66942;52.138;5.216;2024-01-06T08:30:55;101038.0;;;19.59;31.12
64019;BME280;66942;52.138;5.216;2024-01-06T08:34:07;101036.0;;;18.59;32.11
64019;BME280;66942;52.138;5.216;2024-01-06T08:35:43;101041.0;;;18.61;32.28
64019;BME280;66942;52.138;5.216;2024-01-06T08:37:19;101042.0;;;18.37;32.4
64019;BME280;66942;52.138;5.216;2024-01-06T08:38:55;101037.0;;;18.05;32.87
64019;BME280;66942;52.138;5.216;2024-01-06T08:42:07;101046.0;;;19.09;31.67
64019;BME280;66942;52.138;5.216;2024-01-06T08:43:44;101050.0;;;18.61;32.15
64019;BME280;66942;52.138;5.216;2024-01-06T08:45:20;101048.0;;;19.41;31.34
64019;BME280;66942;52.138;5.216;2024-01-06T08:48:32;101055.0;;;18.59;32.28
64019;BME280;66942;52.138;5.216;2024-01-06T08:50:08;101057.0;;;19.25;31.43
64019;BME280;66942;52.138;5.216;2024-01-06T08:51:44;101058.0;;;19.02;31.7
64019;BME280;66942;52.138;5.216;2024-01-06T08:54:56;101055.0;;;18.18;32.64
64019;BME280;66942;52.138;5.216;2024-01-06T08:56:33;101065.0;;;18.96;31.62
64019;BME280;66942;52.138;5.216;2024-01-06T08:58:09;101070.0;;;18.84;31.61
64019;BME280;66942;52.138;5.216;2024-01-06T09:01:22;101074.0;;;19.02;31.43
64019;BME280;66942;52.138;5.216;2024-01-06T09:02:58;101076.0;;;18.87;31.71
64019;BME280;66942;52.138;5.216;2024-01-06T09:04:34;101086.0;;;19.22;31.14
64019;BME280;66942;52.138;5.216;2024-01-06T09:06:10;101085.0;;;19.09;31.6
64019;BME280;66942;52.138;5.216;2024-01-06T09:09:22;101092.0;;;19.28;31.28
64019;BME280;66942;52.138;5.216;2024-01-06T09:10:58;101090.0;;;18.47;31.75
64019;BME280;66942;52.138;5.216;2024-01-06T09:12:34;101099.0;;;19.0;31.42
64019;BME280;66942;52.138;5.216;2024-01-06T09:15:47;101094.0;;;18.84;31.52
64019;BME280;66942;52.138;5.216;2024-01-06T09:17:23;101097.0;;;19.0;31.24
64019;BME280;66942;52.138;5.216;2024-01-06T09:18:59;101101.0;;;19.45;30.66
64019;BME280;66942;52.138;5.216;2024-01-06T09:22:11;101109.0;;;19.41;30.72
64019;BME280;66942;52.138;5.216;2024-01-06T09:23:47;101108.0;;;19.18;30.82
64019;BME280;66942;52.138;5.216;2024-01-06T09:25:23;101108.0;;;19.02;30.79
64019;BME280;66942;52.138;5.216;2024-01-06T09:28:35;101115.0;;;18.48;31.52
64019;BME280;66942;52.138;5.216;2024-01-06T09:30:16;101118.0;;;19.09;31.14
64019;BME280;66942;52.138;5.216;2024-01-06T09:31:52;101123.0;;;18.91;31.13
64019;BME280;66942;52.138;5.216;2024-01-06T09:33:29;101119.0;;;18.71;30.77
64019;BME280;66942;52.138;5.216;2024-01-06T09:36:42;101130.0;;;19.59;30.33
64019;BME280;66942;52.138;5.216;2024-01-06T09:38:18;101130.0;;;19.11;30.78
64019;BME280;66942;52.138;5.216;2024-01-06T09:39:54;101130.0;;;18.79;30.82
64019;BME280;66942;52.138;5.216;2024-01-06T09:43:06;101137.0;;;19.31;30.39
64019;BME280;66942;52.138;5.216;2024-01-06T09:44:42;101136.0;;;19.38;30.63
64019;BME280;66942;52.138;5.216;2024-01-06T09:46:24;101136.0;;;19.13;30.37
64019;BME280;66942;52.138;5.216;2024-01-06T09:48:07;101143.0;;;18.56;30.72
64019;BME280;66942;52.138;5.216;2024-01-06T09:51:26;101143.0;;;18.5;30.69
64019;BME280;66942;52.138;5.216;2024-01-06T09:53:03;101146.0;;;18.46;30.82
64019;BME280;66942;52.138;5.216;2024-01-06T09:54:41;101150.0;;;19.5;29.91
64019;BME280;66942;52.138;5.216;2024-01-06T09:56:24;101155.0;;;19.18;29.69
64019;BME280;66942;52.138;5.216;2024-01-06T09:59:38;101156.0;;;19.5;29.75
64019;BME280;66942;52.138;5.216;2024-01-06T10:01:17;101159.0;;;19.21;30.07
64019;BME280;66942;52.138;5.216;2024-01-06T10:02:54;101164.0;;;19.57;29.77
64019;BME280;66942;52.138;5.216;2024-01-06T10:06:08;101166.0;;;19.0;29.97
64019;BME280;66942;52.138;5.216;2024-01-06T10:07:45;101167.0;;;18.88;30.15
64019;BME280;66942;52.138;5.216;2024-01-06T10:09:26;101172.0;;;19.46;30.2
64019;BME280;66942;52.138;5.216;2024-01-06T10:11:03;101175.0;;;19.59;29.97
64019;BME280;66942;52.138;5.216;2024-01-06T10:14:16;101177.0;;;19.13;29.9
64019;BME280;66942;52.138;5.216;2024-01-06T10:15:52;101184.0;;;19.79;29.55
64019;BME280;66942;52.138;5.216;2024-01-06T10:17:29;101184.0;;;19.7;29.75
64019;BME280;66942;52.138;5.216;2024-01-06T10:20:41;101181.0;;;19.27;29.46
64019;BME280;66942;52.138;5.216;2024-01-06T10:22:19;101186.0;;;19.41;29.95
64019;BME280;66942;52.138;5.216;2024-01-06T10:23:55;101188.0;;;19.34;29.74
64019;BME280;66942;52.138;5.216;2024-01-06T10:27:11;101189.0;;;19.52;29.21
64019;BME280;66942;52.138;5.216;2024-01-06T10:28:48;101196.0;;;20.0;28.86
64019;BME280;66942;52.138;5.216;2024-01-06T10:30:24;101192.0;;;19.47;30.06
64019;BME280;66942;52.138;5.216;2024-01-06T10:32:00;101193.0;;;19.53;30.15
64019;BME280;66942;52.138;5.216;2024-01-06T10:35:14;101196.0;;;19.68;29.47
64019;BME280;66942;52.138;5.216;2024-01-06T10:36:51;101198.0;;;19.27;29.81
64019;BME280;66942;52.138;5.216;2024-01-06T10:38:27;101202.0;;;19.41;29.4
64019;BME280;66942;52.138;5.216;2024-01-06T10:41:46;101206.0;;;19.22;29.58
64019;BME280;66942;52.138;5.216;2024-01-06T10:43:25;101207.0;;;19.25;29.7
64019;BME280;66942;52.138;5.216;2024-01-06T10:45:02;101209.0;;;19.43;29.85
64019;BME280;66942;52.138;5.216;2024-01-06T10:46:41;101209.0;;;19.82;29.23
64019;BME280;66942;52.138;5.216;2024-01-06T10:49:57;101213.0;;;19.84;29.46
64019;BME280;66942;52.138;5.216;2024-01-06T10:51:36;101212.0;;;19.53;29.23
64019;BME280;66942;52.138;5.216;2024-01-06T10:53:13;101215.0;;;19.89;29.41
64019;BME280;66942;52.138;5.216;2024-01-06T10:56:30;101216.0;;;19.95;29.24
64019;BME280;66942;52.138;5.216;2024-01-06T10:58:07;101216.0;;;19.66;29.91
64019;BME280;66942;52.138;5.216;2024-01-06T10:59:45;101216.0;;;19.59;30.32
64019;BME280;66942;52.138;5.216;2024-01-06T11:01:25;101216.0;;;19.61;30.48
64019;BME280;66942;52.138;5.216;2024-01-06T11:04:38;101217.0;;;19.36;30.31
64019;BME280;66942;52.138;5.216;2024-01-06T11:06:16;101219.0;;;19.84;29.72